GMMN Airport Information

Runway Information
Runway 17L Length 12205 ft width 148 ft
Elevation 633 ft Threshold 0 ft Heading 164
Runway 35R Length 12205 ft Width 148 ft
Elevation 656 ft Threshold 0 ft Heading 344
Runway 17R Length 12205 ft width 148 ft
Elevation 636 ft Threshold 0 ft Heading 164
Runway 35L Length 12205 ft Width 148 ft
Elevation 656 ft Threshold 0 ft Heading 344
Airport Frequencies
Type APP Name APP Frequency 121.3 MHZ
Type ATIS Name ATIS Frequency 126.4 MHZ
Type TWR Name TWR Frequency 118.5 MHZ
Airport Navaids
Type VOR-DME Name Casablanca Frequency 114000 KHZ
Airport Weather Information & NOTAM
ADDS - METARS form results

(1455 UTC 22 July 2018)
 
METAR text: GMMN 221430Z 34011KT 310V010 CAVOK 27/18 Q1014 NOSIG
Conditions at: GMMN (NOUASSEUR/CASABL, MA) observed 1430 UTC 22 July 2018
Temperature: 27.0°C (81°F)
Dewpoint: 18.0°C (64°F) [RH = 58%]
Pressure (altimeter): 29.94 inches Hg (1014.0 mb)
Winds: from the NNW (340 degrees) at 13 MPH (11 knots; 5.7 m/s)
Visibility: 6 or more miles (10+ km)
Ceiling: ceiling and visibility are OK
Clouds: unknown
Weather: no significant weather observed at this time

METAR text: GMMN 221400Z 33010KT 300V020 CAVOK 27/17 Q1015 NOSIG
Conditions at: GMMN (NOUASSEUR/CASABL, MA) observed 1400 UTC 22 July 2018
Temperature: 27.0°C (81°F)
Dewpoint: 17.0°C (63°F) [RH = 54%]
Pressure (altimeter): 29.97 inches Hg (1015.0 mb)
Winds: from the NNW (330 degrees) at 12 MPH (10 knots; 5.2 m/s)
Visibility: 6 or more miles (10+ km)
Ceiling: ceiling and visibility are OK
Clouds: unknown
Weather: no significant weather observed at this time